Saturday, October 20, 2018, 6:39 AM EDT
Back to Local

KWVL, Waterville, Waterville Robert Lafleur Airport

Location: Waterville, ME, United States Lat: 44.533
Local Time: 6:39 AM EDT (10:39 GMT) Lon: -69.683
Time Zone: US/Eastern Elev: 334 ft

Show me the last for .
Show Decoded

2018-10-20 05:56 METAR KWVL 200956Z AUTO VRB06G14KT 10SM FEW095 11/04 A2958 RMK AO2 SLP043
                 T01060039 $ =
2018-10-20 04:56 METAR KWVL 200856Z AUTO 20007KT 10SM FEW090 BKN110 10/03 A2959 RMK AO2 SLP048
                 T01000028 56016 $ =
2018-10-20 03:56 METAR KWVL 200756Z AUTO 21009G17KT 180V250 10SM OVC110 10/02 A2960 RMK AO2
                 SLP050 T01000022 $ =
2018-10-20 02:56 METAR KWVL 200656Z AUTO 21007KT 180V240 10SM FEW120 09/03 A2963 RMK AO2 SLP061
                 T00940033 $ =
2018-10-20 01:56 METAR KWVL 200556Z AUTO VRB05KT 10SM CLR 09/04 A2964 RMK AO2 SLP064 T00890039
                 10089 20067 58038 $ =
2018-10-20 00:56 METAR KWVL 200456Z AUTO VRB04KT 10SM CLR 09/04 A2971 RMK AO2 SLP088 T00890039
                 401280000 $ =
2018-10-19 23:56 METAR KWVL 200356Z AUTO VRB03KT 10SM CLR 09/04 A2971 RMK AO2 SLP088 T00890044 $
                 =
2018-10-19 22:56 METAR KWVL 200256Z AUTO 20005KT 10SM SCT110 08/05 A2975 RMK AO2 SLP103 T00780050
                 57031 $ =
2018-10-19 21:56 METAR KWVL 200156Z AUTO 21004KT 10SM CLR 07/04 A2979 RMK AO2 SLP116 T00720044 $
                 =
2018-10-19 20:56 METAR KWVL 200056Z AUTO 21003KT 10SM CLR 07/04 A2981 RMK AO2 SLP122 T00670039 $
                 =
2018-10-19 19:56 METAR KWVL 192356Z AUTO VRB03KT 10SM CLR 07/03 A2984 RMK AO2 SLP136 T00670033
                 10128 20067 58014 $ =
2018-10-19 18:56 METAR KWVL 192256Z AUTO 20004KT 10SM CLR 08/03 A2988 RMK AO2 SLP147 T00780028 $
                 =
2018-10-19 17:56 METAR KWVL 192156Z AUTO VRB05KT 10SM CLR 09/03 A2989 RMK AO2 SLP150 T00890028 $
                 =
2018-10-19 16:56 METAR KWVL 192056Z AUTO 19007KT 10SM CLR 11/02 A2989 RMK AO2 SLP150 T01060022
                 56018 $ =
2018-10-19 15:56 METAR KWVL 191956Z AUTO 20008KT 10SM CLR 12/01 A2989 RMK AO2 SLP151 T01170011 $
                 =
2018-10-19 14:56 METAR KWVL 191856Z AUTO VRB03KT 10SM CLR 12/00 A2991 RMK AO2 SLP158 T01220000 $
                 =
2018-10-19 13:56 METAR KWVL 191756Z AUTO VRB05KT 10SM CLR 11/M01 A2994 RMK AO2 SLP169 T01111006
                 10111 20017 58036 $ =
2018-10-19 12:56 METAR KWVL 191656Z AUTO VRB04KT 10SM CLR 11/M01 A2999 RMK AO2 SLP185 T01061011 $
                 =
2018-10-19 11:56 METAR KWVL 191556Z AUTO 22010G14KT 10SM CLR 09/M01 A3003 RMK AO2 SLP198
                 T00941011 $ =
2018-10-19 10:56 METAR KWVL 191456Z AUTO 21006KT 10SM OVC043 08/M02 A3005 RMK AO2 SLP206
                 T00831017 58021 $ =
2018-10-19 09:56 METAR KWVL 191356Z AUTO 22008KT 10SM BKN041 06/M02 A3008 RMK AO2 SLP216
                 T00561022 $ =
2018-10-19 08:56 METAR KWVL 191256Z AUTO 23006KT 10SM OVC060 03/M03 A3009 RMK AO2 SLP221
                 T00331033 $ =
2018-10-19 07:56 METAR KWVL 191156Z AUTO 22004KT 10SM OVC060 02/M04 A3011 RMK AO2 SLP227 7////
                 T00171039 10017 20006 56002 FZRANO $ =
2018-10-19 06:56 METAR KWVL 191056Z AUTO 00000KT 10SM OVC041 01/M04 A3012 RMK AO2 SLP228
                 T00111044 FZRANO $ =

Support USWX by starting your Amazon purchase here.